Time;durP1;ratioP1;P1;durP2;ratioP2;P2;SDS_P1;SDS_P2;PMS_P1;PMS_P2;Temp;Humidity;BMP_temperature;BMP_pressure;BME280_temperature;BME280_humidity;BME280_pressure;Samples;Min_cycle;Max_cycle;Signal;HPM_P1;HPM_P2
2023/11/18 00:01:20;;;;;;;0.55;0.30;;;;;;;8.28;100.00;96775.47;5010280;28;20026;-78
2023/11/18 00:03:45;;;;;;;0.30;0.20;;;;;;;8.24;100.00;96776.63;5010314;28;20036;-77
2023/11/18 00:06:11;;;;;;;0.30;0.25;;;;;;;8.16;100.00;96780.63;5010278;28;20269;-77
2023/11/18 00:08:36;;;;;;;0.40;0.30;;;;;;;8.19;100.00;96785.75;4993723;28;20041;-77
2023/11/18 00:11:02;;;;;;;0.20;0.20;;;;;;;8.13;100.00;96782.63;5010306;28;20105;-77
2023/11/18 00:13:28;;;;;;;0.88;0.63;;;;;;;8.18;100.00;96791.19;5009636;28;20034;-76
2023/11/18 00:15:54;;;;;;;0.38;0.30;;;;;;;8.14;100.00;96787.88;4993726;28;20056;-76
2023/11/18 00:18:20;;;;;;;1.27;0.50;;;;;;;8.27;100.00;96784.41;4993707;28;20030;-77
2023/11/18 00:20:45;;;;;;;0.50;0.50;;;;;;;8.27;100.00;96781.75;5009984;28;20025;-77
2023/11/18 00:23:11;;;;;;;0.38;0.38;;;;;;;8.18;100.00;96773.38;4993550;28;20033;-76
2023/11/18 00:25:39;;;;;;;0.75;0.38;;;;;;;8.06;100.00;96758.19;4993285;28;20112;-77
2023/11/18 00:28:07;;;;;;;0.30;0.22;;;;;;;8.12;100.00;96760.47;4993779;28;20355;-76
2023/11/18 00:30:33;;;;;;;0.22;0.20;;;;;;;8.13;100.00;96772.84;5009903;28;20040;-77
2023/11/18 00:32:59;;;;;;;0.30;0.30;;;;;;;8.08;100.00;96768.78;5009694;28;20485;-78
2023/11/18 00:35:24;;;;;;;0.10;0.10;;;;;;;8.04;100.00;96768.09;4993301;28;20076;-79
2023/11/18 00:37:50;;;;;;;0.20;0.20;;;;;;;8.04;100.00;96776.09;4993474;28;20030;-76
2023/11/18 00:40:17;;;;;;;0.93;0.60;;;;;;;8.04;100.00;96792.06;5009255;28;20038;-77
2023/11/18 00:42:45;;;;;;;0.30;0.30;;;;;;;8.01;100.00;96794.94;4993340;28;20030;-76
2023/11/18 00:45:12;;;;;;;0.55;0.55;;;;;;;8.03;100.00;96798.34;4993468;28;20121;-78
2023/11/18 00:47:38;;;;;;;1.85;0.57;;;;;;;8.02;100.00;96791.31;4993419;28;20496;-78
2023/11/18 00:50:07;;;;;;;0.52;0.32;;;;;;;8.06;100.00;96778.66;4993374;28;20026;-77
2023/11/18 00:52:33;;;;;;;0.30;0.30;;;;;;;7.98;100.00;96755.19;5009536;28;20421;-77
2023/11/18 00:54:59;;;;;;;0.20;0.20;;;;;;;7.92;100.00;96747.59;4993074;28;20034;-76
2023/11/18 00:57:25;;;;;;;0.10;0.10;;;;;;;7.96;100.00;96762.44;5009433;28;20474;-77
2023/11/18 00:59:50;;;;;;;0.00;0.00;;;;;;;7.92;100.00;96762.72;5009515;28;20032;-77
2023/11/18 01:02:17;;;;;;;1.67;0.47;;;;;;;7.91;100.00;96766.31;5009612;28;20168;-77
2023/11/18 01:04:45;;;;;;;0.43;0.28;;;;;;;7.84;100.00;96765.88;4993240;28;20425;-77
2023/11/18 01:07:12;;;;;;;0.10;0.10;;;;;;;7.84;100.00;96770.34;4993363;28;20119;-77
2023/11/18 01:09:38;;;;;;;0.98;0.75;;;;;;;7.71;100.00;96770.25;4992699;28;20025;-77
2023/11/18 01:12:05;;;;;;;0.43;0.43;;;;;;;7.69;100.00;96777.47;5009677;28;20026;-77
2023/11/18 01:14:31;;;;;;;0.50;0.50;;;;;;;7.67;100.00;96774.06;4992855;28;20030;-78
2023/11/18 01:16:57;;;;;;;0.30;0.30;;;;;;;7.74;100.00;96780.72;4993202;28;20040;-77
2023/11/18 01:19:23;;;;;;;0.10;0.10;;;;;;;7.65;100.00;96765.31;4993014;28;20029;-76
2023/11/18 01:21:49;;;;;;;0.10;0.10;;;;;;;7.68;100.00;96773.13;5009332;28;20038;-77
2023/11/18 01:24:16;;;;;;;0.20;0.20;;;;;;;7.70;100.00;96768.53;4992754;28;20125;-77
2023/11/18 01:26:41;;;;;;;0.10;0.10;;;;;;;7.72;100.00;96765.81;5008830;28;20116;-77
2023/11/18 01:29:07;;;;;;;0.13;0.13;;;;;;;7.75;100.00;96766.47;5010608;28;20022;-77
2023/11/18 01:31:33;;;;;;;0.47;0.40;;;;;;;7.74;100.00;96761.22;4992739;28;20030;-77
2023/11/18 01:33:59;;;;;;;1.10;0.55;;;;;;;7.70;100.00;96765.88;4992740;28;20464;-77
2023/11/18 01:36:25;;;;;;;0.00;0.00;;;;;;;7.74;100.00;96770.06;5009254;28;20022;-78
2023/11/18 01:38:51;;;;;;;0.40;0.38;;;;;;;7.79;100.00;96764.44;4992380;28;20026;-77
2023/11/18 01:41:16;;;;;;;2.58;0.40;;;;;;;7.83;100.00;96772.16;5009222;28;20041;-77
2023/11/18 01:43:46;;;;;;;0.40;0.40;;;;;;;7.88;100.00;96779.81;4992507;28;20030;-77
2023/11/18 01:46:12;;;;;;;0.60;0.50;;;;;;;7.82;100.00;96778.41;4992771;28;20055;-77
2023/11/18 01:48:39;;;;;;;0.88;0.65;;;;;;;7.88;100.00;96786.00;4992697;28;20037;-77
2023/11/18 01:51:11;;;;;;;0.55;0.52;;;;;;;7.91;100.00;96783.16;5009571;28;20033;-78
2023/11/18 01:53:39;;;;;;;;;;;;;;;7.88;100.00;96788.66;4997312;28;20112;-77
2023/11/18 01:56:06;;;;;;;0.40;0.40;;;;;;;7.85;100.00;96786.22;5028983;28;20352;-77
2023/11/18 01:58:32;;;;;;;3.45;0.47;;;;;;;7.81;100.00;96786.50;5013882;28;20041;-77
2023/11/18 02:00:58;;;;;;;1.02;0.85;;;;;;;7.80;100.00;96793.63;4996041;28;20030;-77
2023/11/18 02:03:26;;;;;;;0.38;0.38;;;;;;;7.78;100.00;96792.88;5012787;28;20018;-77
2023/11/18 02:05:52;;;;;;;0.35;0.35;;;;;;;7.78;100.00;96786.72;4996302;28;20478;-77
2023/11/18 02:08:18;;;;;;;0.52;0.52;;;;;;;7.78;100.00;96787.56;5012429;28;20032;-76
2023/11/18 02:10:50;;;;;;;0.75;0.75;;;;;;;7.72;100.00;96777.28;4995900;28;20096;-77
2023/11/18 02:13:15;;;;;;;0.40;0.40;;;;;;;7.73;100.00;96783.47;4996222;28;20029;-77
2023/11/18 02:15:41;;;;;;;1.00;0.75;;;;;;;7.77;100.00;96783.19;5013372;28;20156;-77
2023/11/18 02:18:09;;;;;;;0.20;0.20;;;;;;;7.76;100.00;96789.44;4996068;28;20061;-77
2023/11/18 02:20:36;;;;;;;0.30;0.30;;;;;;;7.70;100.00;96788.97;4995931;28;20065;-76
2023/11/18 02:23:02;;;;;;;0.25;0.25;;;;;;;7.70;100.00;96794.28;4995264;28;20639;-77
2023/11/18 02:25:30;;;;;;;0.10;0.10;;;;;;;7.64;100.00;96785.75;4995687;28;20034;-77
2023/11/18 02:27:55;;;;;;;0.10;0.10;;;;;;;7.73;100.00;96783.47;4979145;28;20076;-76
2023/11/18 02:30:22;;;;;;;0.05;0.05;;;;;;;7.67;100.00;96775.84;4995827;28;20029;-77
2023/11/18 02:33:11;;;;;;;0.73;0.38;;;;;;;7.49;100.00;96785.84;4979463;28;20065;-78
2023/11/18 02:35:49;;;;;;;0.00;0.00;;;;;;;7.29;100.00;96778.25;5013187;28;20100;-78
2023/11/18 02:38:19;;;;;;;0.75;0.10;;;;;;;7.30;100.00;96790.59;4996104;28;20033;-76
2023/11/18 02:40:46;;;;;;;0.00;0.00;;;;;;;7.22;100.00;96791.06;4979288;28;20029;-78
2023/11/18 02:43:12;;;;;;;0.08;0.08;;;;;;;7.13;100.00;96791.63;4995926;28;20037;-78
2023/11/18 02:45:41;;;;;;;0.10;0.10;;;;;;;7.08;100.00;96781.25;4995262;28;20091;-77
2023/11/18 02:48:06;;;;;;;0.85;0.50;;;;;;;7.08;100.00;96801.66;4979378;28;20034;-77
2023/11/18 02:50:32;;;;;;;0.10;0.10;;;;;;;7.06;100.00;96788.47;4995604;28;20508;-77
2023/11/18 02:52:58;;;;;;;0.22;0.22;;;;;;;6.98;100.00;96774.78;4979024;28;20045;-76
2023/11/18 02:55:24;;;;;;;0.10;0.10;;;;;;;6.93;100.00;96792.81;4995401;28;20484;-76
2023/11/18 02:57:51;;;;;;;0.08;0.08;;;;;;;6.94;100.00;96797.19;4978851;28;20091;-75
2023/11/18 03:00:23;;;;;;;0.20;0.20;;;;;;;7.04;100.00;96786.88;4995399;28;20180;-76
2023/11/18 03:02:51;;;;;;;0.40;0.30;;;;;;;6.99;100.00;96789.78;4978650;28;20476;-77
2023/11/18 03:05:20;;;;;;;0.10;0.10;;;;;;;7.03;100.00;96791.31;4979025;28;20131;-77
2023/11/18 03:07:50;;;;;;;1.08;0.85;;;;;;;7.07;100.00;96789.34;4995151;28;20670;-77
2023/11/18 03:10:22;;;;;;;0.70;0.30;;;;;;;6.96;100.00;96779.34;4978536;28;20083;-77
2023/11/18 03:12:48;;;;;;;0.20;0.20;;;;;;;7.03;100.00;96774.50;5012421;28;20343;-78
2023/11/18 03:15:16;;;;;;;0.00;0.00;;;;;;;7.02;100.00;96764.81;4995054;28;20026;-78
2023/11/18 03:17:44;;;;;;;0.47;0.35;;;;;;;6.94;100.00;96762.63;4978950;28;20038;-77
2023/11/18 03:20:14;;;;;;;0.13;0.13;;;;;;;7.00;100.00;96769.38;4978439;28;20022;-76
2023/11/18 03:22:40;;;;;;;0.10;0.10;;;;;;;6.99;100.00;96763.22;4978988;28;20029;-76
2023/11/18 03:25:07;;;;;;;1.02;0.45;;;;;;;6.97;100.00;96767.78;4978147;28;20030;-76
2023/11/18 03:27:33;;;;;;;5.38;4.13;;;;;;;7.00;100.00;96770.25;4994179;28;20140;-76
2023/11/18 03:29:59;;;;;;;2.72;2.03;;;;;;;7.00;100.00;96770.25;5011201;28;20403;-77
2023/11/18 03:32:24;;;;;;;0.32;0.32;;;;;;;7.00;100.00;96778.22;4994515;28;20132;-77
2023/11/18 03:34:50;;;;;;;0.77;0.77;;;;;;;6.99;100.00;96781.81;5010771;28;20018;-77
2023/11/18 03:37:15;;;;;;;13.13;8.40;;;;;;;7.04;100.00;96784.22;4994380;28;20036;-77
2023/11/18 03:39:41;;;;;;;5.43;2.70;;;;;;;7.04;100.00;96782.38;4994296;28;20021;-78
2023/11/18 03:42:08;;;;;;;0.73;0.73;;;;;;;7.07;100.00;96790.16;5010575;28;20061;-76
2023/11/18 03:44:33;;;;;;;2.33;1.55;;;;;;;7.05;100.00;96791.22;4994575;28;20026;-76
2023/11/18 03:46:59;;;;;;;0.20;0.20;;;;;;;7.03;100.00;96795.78;5011913;28;20029;-78
2023/11/18 03:49:25;;;;;;;0.35;0.30;;;;;;;6.98;100.00;96774.78;4994041;28;20092;-76
2023/11/18 03:51:50;;;;;;;5.05;0.65;;;;;;;7.00;100.00;96778.22;4994264;28;20049;-77
2023/11/18 03:54:16;;;;;;;2.17;1.08;;;;;;;6.93;100.00;96776.00;4993944;28;20033;-76
2023/11/18 03:56:42;;;;;;;0.30;0.30;;;;;;;6.88;100.00;96773.63;5010424;28;20032;-77
2023/11/18 03:59:07;;;;;;;0.55;0.43;;;;;;;6.87;100.00;96773.72;4994215;28;20040;-76
2023/11/18 04:01:33;;;;;;;0.73;0.73;;;;;;;6.88;100.00;96778.97;5010564;28;20026;-77
2023/11/18 04:03:58;;;;;;;0.95;0.90;;;;;;;6.96;100.00;96787.31;5010624;28;20394;-77
2023/11/18 04:06:24;;;;;;;0.10;0.10;;;;;;;6.97;100.00;96783.72;5010304;28;20355;-77
2023/11/18 04:08:50;;;;;;;0.05;0.05;;;;;;;6.96;100.00;96776.69;4993765;28;20042;-76
2023/11/18 04:11:16;;;;;;;1.08;0.65;;;;;;;6.92;100.00;96780.47;5010120;28;20036;-77
2023/11/18 04:13:42;;;;;;;0.30;0.30;;;;;;;6.99;100.00;96792.44;4993833;28;20038;-77
2023/11/18 04:16:18;;;;;;;0.15;0.15;;;;;;;6.89;100.00;96788.63;5010065;28;20033;-76
2023/11/18 04:18:45;;;;;;;0.30;0.30;;;;;;;6.83;100.00;96762.41;4994484;28;20030;-77
2023/11/18 04:21:11;;;;;;;0.20;0.20;;;;;;;6.78;100.00;96763.63;5010495;28;20516;-77
2023/11/18 04:23:38;;;;;;;0.65;0.65;;;;;;;6.70;100.00;96758.78;5010160;28;20033;-77
2023/11/18 04:26:07;;;;;;;0.00;0.00;;;;;;;6.70;100.00;96758.78;5009920;28;20053;-77
2023/11/18 04:28:34;;;;;;;0.08;0.08;;;;;;;6.79;100.00;96763.56;5009984;28;20107;-76
2023/11/18 04:30:59;;;;;;;0.00;0.00;;;;;;;6.80;100.00;96765.25;4993640;28;20025;-78
2023/11/18 04:33:25;;;;;;;22.65;1.05;;;;;;;6.81;100.00;96766.97;5011444;28;20030;-77
2023/11/18 04:35:51;;;;;;;3.50;0.65;;;;;;;6.85;100.00;96765.00;5009623;28;20036;-77
2023/11/18 04:38:17;;;;;;;0.20;0.20;;;;;;;6.95;100.00;96774.13;4990357;28;20397;-76
2023/11/18 04:40:45;;;;;;;3.47;1.35;;;;;;;6.95;100.00;96774.97;4993314;28;20524;-78
2023/11/18 04:43:12;;;;;;;2.13;1.48;;;;;;;7.05;100.00;96789.41;5009817;28;20029;-77
2023/11/18 04:45:37;;;;;;;0.47;0.47;;;;;;;7.06;100.00;96799.13;4993342;28;20444;-77
2023/11/18 04:48:04;;;;;;;0.75;0.68;;;;;;;7.07;100.00;96807.97;5009834;28;20026;-77
2023/11/18 04:50:30;;;;;;;0.30;0.30;;;;;;;7.17;100.00;96816.25;5009779;28;20092;-77
2023/11/18 04:52:56;;;;;;;0.40;0.40;;;;;;;7.22;100.00;96811.50;5009429;28;20029;-77
2023/11/18 04:55:22;;;;;;;2.78;1.55;;;;;;;7.20;100.00;96810.75;4993332;28;20033;-77
2023/11/18 04:57:47;;;;;;;2.05;1.05;;;;;;;7.23;100.00;96799.91;4993161;28;20037;-78
2023/11/18 05:00:16;;;;;;;0.45;0.45;;;;;;;7.23;100.00;96805.22;5009698;28;20142;-77
2023/11/18 05:02:42;;;;;;;1.20;1.15;;;;;;;7.25;100.00;96811.31;4993381;28;20358;-77
2023/11/18 05:05:09;;;;;;;1.23;1.13;;;;;;;7.14;100.00;96811.09;5009733;28;20034;-77
2023/11/18 05:07:35;;;;;;;1.52;1.35;;;;;;;7.01;100.00;96806.50;4993067;28;20030;-78
2023/11/18 05:10:02;;;;;;;0.77;0.55;;;;;;;6.93;100.00;96792.81;4992810;28;20400;-77
2023/11/18 05:12:29;;;;;;;0.82;0.47;;;;;;;6.96;100.00;96792.63;4993259;28;20029;-77
2023/11/18 05:14:56;;;;;;;0.10;0.10;;;;;;;6.93;100.00;96790.16;4993080;28;20030;-77
2023/11/18 05:17:22;;;;;;;0.47;0.32;;;;;;;6.94;100.00;96783.91;5010723;28;20026;-77
2023/11/18 05:19:48;;;;;;;0.82;0.80;;;;;;;6.95;100.00;96780.28;5009348;28;20109;-77
2023/11/18 05:22:14;;;;;;;1.73;1.55;;;;;;;6.98;100.00;96784.59;5009382;28;20496;-78
2023/11/18 05:24:39;;;;;;;1.05;0.90;;;;;;;7.04;100.00;96784.22;5009539;28;20116;-77
2023/11/18 05:27:05;;;;;;;1.20;0.85;;;;;;;6.90;100.00;96770.88;5010982;28;20131;-76
2023/11/18 05:29:32;;;;;;;1.67;1.17;;;;;;;6.91;100.00;96785.88;5013306;28;20038;-76
2023/11/18 05:31:57;;;;;;;0.28;0.28;;;;;;;6.77;100.00;96769.88;5013179;28;20496;-77
2023/11/18 05:34:24;;;;;;;0.50;0.50;;;;;;;6.68;100.00;96760.66;5012330;28;20029;-77
2023/11/18 05:36:54;;;;;;;0.10;0.10;;;;;;;6.53;100.00;96748.28;5014210;28;20041;-77
2023/11/18 05:39:21;;;;;;;0.68;0.35;;;;;;;6.52;100.00;96742.13;4997330;28;20037;-77
2023/11/18 05:41:49;;;;;;;1.45;0.50;;;;;;;6.45;100.00;96732.81;5012886;28;20026;-76
2023/11/18 05:44:19;;;;;;;0.30;0.30;;;;;;;6.43;100.00;96741.78;5012963;28;20037;-76
2023/11/18 05:46:48;;;;;;;0.30;0.30;;;;;;;6.47;100.00;96738.03;4996927;28;20033;-77
2023/11/18 05:49:13;;;;;;;0.00;0.00;;;;;;;6.42;100.00;96745.41;5012769;28;20083;-77
2023/11/18 05:51:42;;;;;;;0.00;0.00;;;;;;;6.50;100.00;96740.50;5012668;28;20029;-77
2023/11/18 05:54:08;;;;;;;0.20;0.20;;;;;;;6.44;100.00;96733.75;4996636;28;20482;-78
2023/11/18 05:56:34;;;;;;;0.30;0.30;;;;;;;6.51;100.00;96740.41;4996405;28;20041;-76
2023/11/18 05:59:02;;;;;;;0.17;0.17;;;;;;;6.51;100.00;96732.44;5012472;28;20032;-76
2023/11/18 06:01:29;;;;;;;0.73;0.63;;;;;;;6.53;100.00;96737.66;5012418;28;20038;-76
2023/11/18 06:03:56;;;;;;;0.30;0.30;;;;;;;6.62;100.00;96733.59;5012438;28;20026;-76
2023/11/18 06:06:25;;;;;;;0.10;0.10;;;;;;;6.65;100.00;96738.72;4996600;28;20092;-77
2023/11/18 06:09:17;;;;;;;0.32;0.32;;;;;;;6.68;100.00;96739.41;4996434;28;20120;-77
2023/11/18 06:11:44;;;;;;;0.10;0.10;;;;;;;6.68;100.00;96742.06;5013721;28;20125;-76
2023/11/18 06:14:10;;;;;;;0.15;0.15;;;;;;;6.74;100.00;96736.38;4995874;28;20374;-76
2023/11/18 06:16:37;;;;;;;0.10;0.10;;;;;;;6.84;100.00;96766.78;5014066;28;20037;-77
2023/11/18 06:19:05;;;;;;;0.75;0.65;;;;;;;6.91;100.00;96757.50;5012226;28;20026;-76
2023/11/18 06:21:31;;;;;;;0.10;0.10;;;;;;;6.85;100.00;96773.81;4996154;28;20144;-78
2023/11/18 06:23:58;;;;;;;0.13;0.13;;;;;;;6.81;100.00;96779.41;4995628;28;20021;-76
2023/11/18 06:26:26;;;;;;;0.88;0.88;;;;;;;6.80;100.00;96791.81;4995661;28;20193;-74
2023/11/18 06:28:53;;;;;;;0.08;0.05;;;;;;;6.87;100.00;96795.84;4995801;28;20036;-76
2023/11/18 06:31:20;;;;;;;0.20;0.20;;;;;;;6.97;100.00;96804.13;5010458;28;20033;-77
2023/11/18 06:33:47;;;;;;;10.10;5.35;;;;;;;6.98;100.00;96806.69;4993127;28;20018;-75
2023/11/18 06:36:19;;;;;;;7.57;4.68;;;;;;;7.05;100.00;96818.66;5009588;28;20458;-78
2023/11/18 06:38:45;;;;;;;14.88;7.68;;;;;;;7.02;100.00;96807.34;5007910;28;20026;-76
2023/11/18 06:41:13;;;;;;;12.10;6.10;;;;;;;7.06;100.00;96808.88;5009294;28;20022;-77
2023/11/18 06:43:51;;;;;;;3.08;2.17;;;;;;;7.12;100.00;96819.16;5010441;28;20115;-78
2023/11/18 06:46:25;;;;;;;0.82;0.82;;;;;;;7.16;100.00;96814.53;5009522;28;20017;-80
2023/11/18 06:48:54;;;;;;;0.70;0.65;;;;;;;7.18;100.00;96801.97;4993498;28;20180;-78
2023/11/18 06:51:24;;;;;;;2.38;0.88;;;;;;;7.06;100.00;96801.78;4992571;28;20111;-77
2023/11/18 06:53:50;;;;;;;2.47;1.30;;;;;;;7.00;100.00;96807.47;5008833;28;20703;-77
2023/11/18 06:56:16;;;;;;;1.05;1.02;;;;;;;7.01;100.00;96819.78;4993577;28;20021;-77
2023/11/18 06:58:42;;;;;;;1.70;0.93;;;;;;;7.02;100.00;96823.31;4993630;28;20030;-77
2023/11/18 07:01:09;;;;;;;1.00;0.93;;;;;;;6.98;100.00;96817.31;4992354;28;20026;-76
2023/11/18 07:03:36;;;;;;;0.22;0.22;;;;;;;6.97;100.00;96804.13;5009049;28;20034;-77
2023/11/18 07:06:05;;;;;;;2.30;0.63;;;;;;;6.94;100.00;96791.03;4992603;28;20416;-76
2023/11/18 07:08:32;;;;;;;0.95;0.95;;;;;;;6.95;100.00;96806.84;5001933;28;20054;-77
2023/11/18 07:10:58;;;;;;;1.30;1.20;;;;;;;6.96;100.00;96800.59;4992585;28;20022;-76
2023/11/18 07:13:23;;;;;;;2.85;2.65;;;;;;;6.90;100.00;96810.75;4992159;28;20040;-76
2023/11/18 07:15:50;;;;;;;3.95;1.95;;;;;;;6.85;100.00;96819.00;5009254;28;20071;-77
2023/11/18 07:18:17;;;;;;;1.25;0.90;;;;;;;6.89;100.00;96817.84;5008507;28;20529;-76
2023/11/18 07:20:43;;;;;;;3.58;0.93;;;;;;;6.93;100.00;96829.16;5008380;28;20025;-75
2023/11/18 07:23:08;;;;;;;1.80;1.27;;;;;;;7.01;100.00;96837.56;5009795;28;20137;-76
2023/11/18 07:25:34;;;;;;;3.85;1.73;;;;;;;7.08;100.00;96834.44;5008234;28;20050;-77
2023/11/18 07:28:00;;;;;;;1.60;1.33;;;;;;;7.17;100.00;96842.84;4976245;28;20034;-77
2023/11/18 07:30:26;;;;;;;0.93;0.93;;;;;;;7.22;100.00;96848.72;4991985;28;20105;-77
2023/11/18 07:32:51;;;;;;;1.95;1.08;;;;;;;7.16;100.00;96825.16;4991894;28;20121;-77
2023/11/18 07:35:17;;;;;;;1.23;1.02;;;;;;;7.19;100.00;96825.84;4991608;28;20088;-76
2023/11/18 07:37:43;;;;;;;0.47;0.40;;;;;;;7.14;100.00;96835.88;4991729;28;20121;-74
2023/11/18 07:40:12;;;;;;;1.42;0.82;;;;;;;7.12;100.00;96831.59;4991798;28;20042;-76
2023/11/18 07:42:38;;;;;;;0.40;0.40;;;;;;;6.99;100.00;96842.09;4991457;28;20104;-76
2023/11/18 07:45:17;;;;;;;2.65;0.40;;;;;;;6.96;100.00;96843.13;4991791;28;20470;-76
2023/11/18 07:47:43;;;;;;;0.03;0.03;;;;;;;6.76;100.00;96845.25;4977062;28;20125;-77
2023/11/18 07:50:12;;;;;;;0.43;0.43;;;;;;;6.79;100.00;96837.97;4991836;28;20021;-76
2023/11/18 07:52:38;;;;;;;0.00;0.00;;;;;;;6.89;100.00;96847.09;4991691;28;20115;-76
2023/11/18 07:55:04;;;;;;;0.15;0.15;;;;;;;6.86;100.00;96843.78;4991492;28;20144;-75
2023/11/18 07:57:29;;;;;;;0.05;0.05;;;;;;;6.82;100.00;96843.09;5009057;28;20022;-76
2023/11/18 07:59:55;;;;;;;3.38;0.32;;;;;;;6.94;100.00;96839.72;4975083;28;20055;-76
2023/11/18 08:02:20;;;;;;;0.60;0.60;;;;;;;7.03;100.00;96859.59;4974964;28;20401;-76
2023/11/18 08:04:46;;;;;;;1.17;0.60;;;;;;;7.00;100.00;96847.34;4991150;28;20056;-76
2023/11/18 08:07:12;;;;;;;11.85;1.23;;;;;;;7.06;100.00;96854.09;4991146;28;20034;-76
2023/11/18 08:09:38;;;;;;;0.45;0.45;;;;;;;7.03;100.00;96857.78;5008852;28;20049;-76
2023/11/18 08:12:09;;;;;;;0.52;0.52;;;;;;;7.07;100.00;96848.66;4991593;28;20026;-76
2023/11/18 08:14:34;;;;;;;0.47;0.47;;;;;;;7.08;100.00;96846.88;4975556;28;20531;-76
2023/11/18 08:17:00;;;;;;;0.60;0.60;;;;;;;7.11;100.00;96856.50;4991151;28;20022;-77
2023/11/18 08:19:26;;;;;;;22.10;1.77;;;;;;;7.11;100.00;96852.00;4974948;28;20029;-75
2023/11/18 08:21:51;;;;;;;1.08;0.88;;;;;;;7.15;100.00;96852.69;4991058;28;20084;-78
2023/11/18 08:24:17;;;;;;;3.60;1.63;;;;;;;7.13;100.00;96847.47;4974992;28;20022;-77
2023/11/18 08:26:43;;;;;;;2.42;1.33;;;;;;;7.16;100.00;96865.03;4999858;28;20042;-77
2023/11/18 08:29:09;;;;;;;3.85;1.63;;;;;;;7.17;100.00;96870.25;5007443;28;20022;-76
2023/11/18 08:31:35;;;;;;;0.90;0.90;;;;;;;7.15;100.00;96863.31;5006972;28;20092;-77
2023/11/18 08:34:00;;;;;;;2.17;1.88;;;;;;;7.16;100.00;96867.69;5007404;28;20029;-77
2023/11/18 08:36:27;;;;;;;1.48;1.38;;;;;;;7.22;100.00;96862.88;5007484;28;20092;-77
2023/11/18 08:38:53;;;;;;;2.03;1.83;;;;;;;7.21;100.00;96865.63;5007062;28;20033;-77
2023/11/18 08:41:19;;;;;;;2.17;1.85;;;;;;;7.20;100.00;96861.25;5008702;28;20061;-77
2023/11/18 08:43:48;;;;;;;5.10;1.77;;;;;;;7.19;100.00;96872.84;4990634;28;20030;-77
2023/11/18 08:46:15;;;;;;;2.58;1.40;;;;;;;7.20;100.00;96871.91;4991271;28;20042;-76
2023/11/18 08:48:40;;;;;;;2.08;0.90;;;;;;;7.17;100.00;96856.97;5007070;28;20491;-78
2023/11/18 08:51:09;;;;;;;0.75;0.60;;;;;;;7.07;100.00;96856.63;5007158;28;20030;-77
2023/11/18 08:53:40;;;;;;;2.58;1.08;;;;;;;7.11;100.00;96865.31;4991159;28;20445;-76
2023/11/18 08:56:13;;;;;;;2.20;1.35;;;;;;;7.07;100.00;96863.78;4991802;28;20100;-77
2023/11/18 08:58:41;;;;;;;1.83;1.38;;;;;;;7.05;100.00;96865.66;4991492;28;20033;-77
2023/11/18 09:01:13;;;;;;;3.95;2.20;;;;;;;6.89;100.00;96868.34;5007652;28;20108;-76
2023/11/18 09:03:43;;;;;;;13.18;3.45;;;;;;;6.85;100.00;96880.13;4991469;28;20041;-76
2023/11/18 09:06:25;;;;;;;1.17;1.08;;;;;;;6.74;100.00;96871.91;4990945;28;20065;-76
2023/11/18 09:08:54;;;;;;;1.88;1.77;;;;;;;6.74;100.00;96871.91;5006992;28;20029;-77
2023/11/18 09:11:26;;;;;;;3.22;2.08;;;;;;;6.74;100.00;96871.03;5006807;28;20162;-77
2023/11/18 09:13:59;;;;;;;4.35;2.95;;;;;;;6.77;100.00;96870.88;5006799;28;20100;-77
2023/11/18 09:16:29;;;;;;;4.47;1.38;;;;;;;6.83;100.00;96871.38;4987311;28;20456;-76
2023/11/18 09:18:55;;;;;;;9.50;2.88;;;;;;;6.86;100.00;96865.88;4990564;28;20038;-77
2023/11/18 09:21:24;;;;;;;3.65;3.28;;;;;;;6.88;100.00;96864.00;5008334;28;20088;-77
2023/11/18 09:23:50;;;;;;;4.43;2.67;;;;;;;6.93;100.00;96850.44;5008014;28;20030;-75
2023/11/18 09:26:16;;;;;;;1.65;1.55;;;;;;;6.84;100.00;96829.72;4990476;28;20054;-77
2023/11/18 09:28:44;;;;;;;0.95;0.90;;;;;;;6.83;100.00;96844.78;4990541;28;20029;-76
2023/11/18 09:31:12;;;;;;;1.67;1.58;;;;;;;6.83;100.00;96844.78;4990417;28;20050;-76
2023/11/18 09:33:42;;;;;;;0.75;0.47;;;;;;;6.92;100.00;96838.94;4990873;28;20030;-76
2023/11/18 09:36:12;;;;;;;1.17;1.05;;;;;;;6.97;100.00;96847.53;4990630;28;20029;-78
2023/11/18 09:38:41;;;;;;;1.27;1.15;;;;;;;7.00;100.00;96855.31;4990989;28;20030;-77
2023/11/18 09:41:12;;;;;;;11.10;3.10;;;;;;;7.05;100.00;96863.00;5005702;28;20088;-77
2023/11/18 09:43:43;;;;;;;1.15;1.05;;;;;;;6.95;100.00;96843.25;4991417;28;20485;-76
2023/11/18 09:46:26;;;;;;;1.23;1.05;;;;;;;6.96;100.00;96851.13;5005348;28;20038;-76
2023/11/18 09:49:14;;;;;;;1.48;1.17;;;;;;;7.03;100.00;96849.81;5006351;28;20041;-77
2023/11/18 09:51:41;;;;;;;1.45;1.27;;;;;;;7.07;100.00;96835.38;5004045;28;20487;-76
2023/11/18 09:54:23;;;;;;;1.08;0.98;;;;;;;7.20;100.00;96850.63;4989694;28;20026;-75
2023/11/18 09:57:09;;;;;;;3.47;1.88;;;;;;;7.25;100.00;96843.22;5006071;28;20057;-77
2023/11/18 09:59:54;;;;;;;1.95;1.45;;;;;;;7.26;100.00;96837.78;5006596;28;20088;-75
2023/11/18 10:02:23;;;;;;;2.50;1.75;;;;;;;7.31;100.00;96833.06;5007095;28;20053;-76
2023/11/18 10:04:49;;;;;;;5.97;2.35;;;;;;;7.29;100.00;96834.94;5006618;28;20021;-77
2023/11/18 10:07:19;;;;;;;0.45;0.45;;;;;;;7.29;100.00;96821.66;5006384;28;20092;-76
2023/11/18 10:09:45;;;;;;;1.08;0.70;;;;;;;7.34;100.00;96829.34;4990282;28;20033;-77
2023/11/18 10:12:16;;;;;;;0.50;0.50;;;;;;;7.33;100.00;96824.97;4990287;28;20044;-76
2023/11/18 10:14:43;;;;;;;0.85;0.85;;;;;;;7.44;100.00;96835.84;5009875;28;20037;-77
2023/11/18 10:17:09;;;;;;;1.55;0.52;;;;;;;7.54;100.00;96828.97;4993349;28;20036;-77
2023/11/18 10:19:56;;;;;;;0.88;0.88;;;;;;;7.54;100.00;96824.53;5010581;28;20029;-76
2023/11/18 10:22:24;;;;;;;0.45;0.35;;;;;;;7.43;100.00;96812.84;5009310;28;20034;-76
2023/11/18 10:24:49;;;;;;;0.82;0.47;;;;;;;7.48;100.00;96816.06;4993378;28;20196;-77
2023/11/18 10:27:15;;;;;;;0.40;0.40;;;;;;;7.57;100.00;96828.78;4992834;28;20077;-77
2023/11/18 10:29:41;;;;;;;0.35;0.35;;;;;;;7.49;100.00;96823.09;5009702;28;20068;-77
2023/11/18 10:32:15;;;;;;;0.20;0.20;;;;;;;7.46;100.00;96808.19;5010134;28;20481;-76
2023/11/18 10:34:42;;;;;;;0.63;0.63;;;;;;;7.56;100.00;96817.31;4991769;28;20049;-77
2023/11/18 10:37:10;;;;;;;1.35;0.98;;;;;;;7.63;100.00;96833.75;4995655;28;20052;-77
2023/11/18 10:39:36;;;;;;;0.70;0.70;;;;;;;7.61;100.00;96814.38;4995563;28;20034;-76
2023/11/18 10:42:02;;;;;;;2.05;1.50;;;;;;;7.64;100.00;96819.50;4994776;28;20490;-77
2023/11/18 10:44:31;;;;;;;0.90;0.82;;;;;;;7.63;100.00;96815.13;5011715;28;20057;-76
2023/11/18 10:47:01;;;;;;;0.60;0.60;;;;;;;7.50;100.00;96796.41;4995800;28;20568;-77
2023/11/18 10:49:28;;;;;;;0.63;0.32;;;;;;;7.54;100.00;96803.25;4995724;28;20026;-76
2023/11/18 10:51:53;;;;;;;1.00;0.52;;;;;;;7.61;100.00;96819.69;5011835;28;20118;-76
2023/11/18 10:54:19;;;;;;;0.65;0.65;;;;;;;7.61;100.00;96819.69;4995266;28;20468;-77
2023/11/18 10:56:49;;;;;;;1.55;1.00;;;;;;;7.56;100.00;96819.97;5011807;28;20026;-77
2023/11/18 10:59:16;;;;;;;1.70;1.25;;;;;;;7.63;100.00;96809.78;4995286;28;20029;-77
2023/11/18 11:01:43;;;;;;;0.75;0.52;;;;;;;7.60;100.00;96815.31;4995219;28;20034;-77
2023/11/18 11:04:10;;;;;;;0.15;0.15;;;;;;;7.54;100.00;96794.41;5011752;28;20014;-76
2023/11/18 11:06:41;;;;;;;0.43;0.43;;;;;;;7.40;100.00;96800.59;5011486;28;20052;-77
2023/11/18 11:09:16;;;;;;;2.22;1.63;;;;;;;7.36;100.00;96806.16;4995208;28;20026;-77
2023/11/18 11:12:05;;;;;;;2.90;1.50;;;;;;;7.38;100.00;96818.44;5011959;28;20030;-77
2023/11/18 11:14:36;;;;;;;1.35;1.08;;;;;;;7.41;100.00;96810.25;5003684;28;20136;-76
2023/11/18 11:17:14;;;;;;;0.22;0.22;;;;;;;7.35;100.00;96805.31;5011643;28;20453;-77
2023/11/18 11:20:11;;;;;;;0.25;0.25;;;;;;;7.37;100.00;96808.75;5011484;28;20053;-76
2023/11/18 11:22:58;;;;;;;2.35;1.10;;;;;;;7.37;100.00;96816.72;5012642;28;20041;-77
2023/11/18 11:25:31;;;;;;;1.38;1.08;;;;;;;7.33;100.00;96812.53;4994206;28;20029;-77
2023/11/18 11:28:13;;;;;;;6.60;0.93;;;;;;;7.40;100.00;96823.66;4978863;28;20509;-77
2023/11/18 11:30:45;;;;;;;21.15;0.95;;;;;;;7.44;100.00;96831.38;4987784;28;20041;-76
2023/11/18 11:33:27;;;;;;;0.60;0.52;;;;;;;7.43;100.00;96819.03;4978443;28;20053;-77
2023/11/18 11:35:59;;;;;;;2.75;1.80;;;;;;;7.46;100.00;96810.00;4978946;28;20022;-76
2023/11/18 11:38:26;;;;;;;0.47;0.47;;;;;;;7.39;100.00;96795.34;4978681;28;20033;-76